Time;durP1;ratioP1;P1;durP2;ratioP2;P2;SDS_P1;SDS_P2;PMS_P1;PMS_P2;Temp;Humidity;BMP_temperature;BMP_pressure;BME280_temperature;BME280_humidity;BME280_pressure;Samples;Min_cycle;Max_cycle;Signal;HPM_P1;HPM_P2
2022/12/18 00:01:59;;;;;;;24.08;10.98;;;-1.90;99.90;;;;;;4154873;28;20038;-64
2022/12/18 00:04:05;;;;;;;21.65;10.82;;;-1.90;99.90;;;;;;4146339;28;20044;-64
2022/12/18 00:06:06;;;;;;;22.33;10.93;;;-1.90;99.90;;;;;;4141434;28;20033;-64
2022/12/18 00:08:07;;;;;;;19.90;9.85;;;-1.90;99.90;;;;;;4151771;28;20030;-64
2022/12/18 00:10:08;;;;;;;20.27;9.90;;;-1.90;99.90;;;;;;4163105;28;20040;-64
2022/12/18 00:12:09;;;;;;;20.15;9.48;;;-1.90;99.90;;;;;;4155282;28;20072;-64
2022/12/18 00:14:11;;;;;;;18.23;9.68;;;-1.90;99.90;;;;;;4147183;28;20037;-63
2022/12/18 00:16:14;;;;;;;20.13;10.05;;;-1.90;99.90;;;;;;4144394;28;20401;-64
2022/12/18 00:18:15;;;;;;;20.35;8.98;;;-1.80;99.90;;;;;;4149888;28;20105;-63
2022/12/18 00:20:20;;;;;;;21.83;9.43;;;-1.80;99.90;;;;;;4146045;28;20033;-64
2022/12/18 00:22:21;;;;;;;20.15;9.85;;;-1.80;99.90;;;;;;4146576;28;20461;-64
2022/12/18 00:24:21;;;;;;;23.65;10.68;;;-1.80;99.90;;;;;;4147131;28;20096;-64
2022/12/18 00:26:24;;;;;;;20.60;9.55;;;-1.80;99.90;;;;;;4145447;28;20233;-63
2022/12/18 00:28:25;;;;;;;21.92;10.10;;;-1.80;99.90;;;;;;4153246;28;20030;-64
2022/12/18 00:30:25;;;;;;;22.25;10.95;;;-1.90;99.90;;;;;;4144416;28;22778;-64
2022/12/18 00:32:26;;;;;;;21.08;10.50;;;-1.90;99.90;;;;;;4147096;28;20049;-64
2022/12/18 00:34:26;;;;;;;18.67;9.05;;;-2.00;99.90;;;;;;4146126;28;20049;-63
2022/12/18 00:36:32;;;;;;;20.73;9.40;;;-2.00;99.90;;;;;;4144890;28;20040;-64
2022/12/18 00:38:34;;;;;;;22.15;9.98;;;-2.00;99.90;;;;;;4152896;28;20040;-63
2022/12/18 00:40:34;;;;;;;19.67;9.30;;;-2.00;99.90;;;;;;4162436;28;20071;-64
2022/12/18 00:44:54;;;;;;;18.83;9.07;;;-2.00;99.90;;;;;;4130301;28;20042;-63
2022/12/18 00:46:54;;;;;;;21.85;10.23;;;-2.10;99.90;;;;;;4139882;28;20049;-64
2022/12/18 00:48:55;;;;;;;19.02;9.75;;;-2.10;99.90;;;;;;4145652;28;20037;-63
2022/12/18 00:50:56;;;;;;;22.10;9.60;;;-2.10;99.90;;;;;;4157224;28;20029;-64
2022/12/18 00:52:56;;;;;;;19.85;9.40;;;-2.10;99.90;;;;;;4153889;28;20045;-64
2022/12/18 00:54:57;;;;;;;18.35;8.20;;;-2.20;99.90;;;;;;4162792;28;20523;-64
2022/12/18 00:56:57;;;;;;;21.48;9.40;;;-2.20;99.90;;;;;;4137553;28;20100;-64
2022/12/18 00:58:58;;;;;;;18.48;9.40;;;-2.20;99.90;;;;;;4134142;28;20069;-63
2022/12/18 01:00:58;;;;;;;21.05;8.88;;;-2.20;99.90;;;;;;4129450;28;20038;-64
2022/12/18 01:02:59;;;;;;;20.17;8.95;;;-2.20;99.90;;;;;;4134912;28;20038;-63
2022/12/18 01:04:59;;;;;;;22.70;9.80;;;-2.20;99.90;;;;;;4144408;28;20030;-63
2022/12/18 01:07:00;;;;;;;17.13;8.48;;;-2.20;99.90;;;;;;4141790;28;20121;-64
2022/12/18 01:09:01;;;;;;;20.63;8.98;;;-2.20;99.90;;;;;;4153373;28;20045;-64
2022/12/18 01:11:08;;;;;;;19.83;9.20;;;-2.20;99.90;;;;;;4149447;28;20038;-64
2022/12/18 01:13:09;;;;;;;20.25;9.18;;;-2.10;99.90;;;;;;4139875;28;20117;-63
2022/12/18 01:15:13;;;;;;;16.92;8.43;;;-2.10;99.90;;;;;;4129905;28;20050;-64
2022/12/18 01:17:14;;;;;;;18.33;8.88;;;-2.10;99.90;;;;;;4144414;28;20045;-64
2022/12/18 01:19:14;;;;;;;18.35;8.32;;;-2.10;99.90;;;;;;4133394;28;20058;-64
2022/12/18 01:21:16;;;;;;;16.52;7.97;;;-2.10;99.90;;;;;;4129174;28;20037;-64
2022/12/18 01:23:16;;;;;;;18.10;8.18;;;-2.20;99.90;;;;;;4133173;28;20037;-63
2022/12/18 01:25:17;;;;;;;17.23;8.95;;;-2.10;99.90;;;;;;4143676;28;20076;-63
2022/12/18 01:27:18;;;;;;;17.35;8.05;;;-2.20;99.90;;;;;;4139354;28;20079;-64
2022/12/18 01:29:18;;;;;;;19.38;9.25;;;-2.10;99.90;;;;;;4145435;28;20528;-64
2022/12/18 01:31:22;;;;;;;18.15;8.20;;;-2.10;99.90;;;;;;4145366;28;20064;-64
2022/12/18 01:33:22;;;;;;;20.50;9.13;;;-2.10;99.90;;;;;;4145735;28;20523;-63
2022/12/18 01:35:23;;;;;;;20.45;9.35;;;-2.10;99.90;;;;;;4141660;28;20054;-64
2022/12/18 01:37:24;;;;;;;16.58;9.07;;;-2.10;99.90;;;;;;4144487;28;20145;-64
2022/12/18 01:39:24;;;;;;;18.15;9.07;;;-2.10;99.90;;;;;;4143453;28;20038;-64
2022/12/18 01:42:01;;;;;;;17.42;9.20;;;-2.10;99.90;;;;;;4128983;28;20031;-64
2022/12/18 01:43:57;;;;;;;17.63;8.63;;;-2.10;99.90;;;;;;4143087;28;20414;-64
2022/12/18 01:45:59;;;;;;;18.25;9.20;;;-2.20;99.90;;;;;;4143419;28;20137;-64
2022/12/18 01:48:06;;;;;;;15.75;8.07;;;-2.10;99.90;;;;;;4146059;28;20038;-64
2022/12/18 01:50:30;;;;;;;18.48;9.23;;;-2.10;99.90;;;;;;4147313;28;20393;-64
2022/12/18 01:52:32;;;;;;;15.50;8.30;;;-2.10;99.90;;;;;;4141215;28;20381;-63
2022/12/18 01:54:33;;;;;;;17.85;8.77;;;-2.00;99.90;;;;;;4145266;28;20472;-63
2022/12/18 01:56:34;;;;;;;16.88;8.52;;;-2.00;99.90;;;;;;4143791;28;20033;-64
2022/12/18 01:58:45;;;;;;;18.95;8.80;;;-2.00;99.90;;;;;;4151566;28;20124;-64
2022/12/18 02:00:46;;;;;;;20.10;9.27;;;-2.10;99.90;;;;;;4128072;28;20473;-64
2022/12/18 02:02:47;;;;;;;18.08;9.02;;;-2.10;99.90;;;;;;4138671;28;20121;-64
2022/12/18 02:04:47;;;;;;;19.48;8.63;;;-2.10;99.90;;;;;;4140650;28;20046;-64
2022/12/18 02:07:12;;;;;;;18.27;8.82;;;-2.10;99.90;;;;;;4137832;28;20406;-64
2022/12/18 02:09:19;;;;;;;17.55;8.50;;;-2.10;99.90;;;;;;4133502;28;20432;-63
2022/12/18 02:11:40;;;;;;;15.70;8.38;;;-2.10;99.90;;;;;;4141442;28;20481;-64
2022/12/18 02:14:05;;;;;;;19.10;9.10;;;-2.20;99.90;;;;;;4134061;28;20167;-64
2022/12/18 02:16:45;;;;;;;18.73;9.00;;;-2.10;99.90;;;;;;4139000;28;20038;-63
2022/12/18 02:18:50;;;;;;;17.17;8.15;;;-2.10;99.90;;;;;;4119676;28;20038;-64
2022/12/18 02:21:13;;;;;;;19.30;9.73;;;-2.10;99.90;;;;;;4123463;28;20057;-63
2022/12/18 02:23:59;;;;;;;18.63;9.35;;;-2.10;99.90;;;;;;4127029;28;20069;-64
2022/12/18 02:26:09;;;;;;;20.42;8.60;;;-2.10;99.90;;;;;;4138129;28;20084;-64
2022/12/18 02:28:15;;;;;;;17.38;8.50;;;-2.20;99.90;;;;;;4139035;28;20121;-65
2022/12/18 02:30:16;;;;;;;18.70;8.85;;;-2.10;99.90;;;;;;4136356;28;20040;-64
2022/12/18 02:32:25;;;;;;;17.05;8.02;;;-2.10;99.90;;;;;;4145888;28;20421;-64
2022/12/18 02:34:30;;;;;;;21.88;9.75;;;-2.20;99.90;;;;;;4141640;28;20037;-64
2022/12/18 02:36:33;;;;;;;22.35;9.70;;;-2.10;99.90;;;;;;4141991;28;20077;-64
2022/12/18 02:38:35;;;;;;;19.90;8.93;;;-2.10;99.90;;;;;;4141994;28;20479;-64
2022/12/18 02:40:36;;;;;;;19.83;8.32;;;-2.10;99.90;;;;;;4142741;28;20093;-64
2022/12/18 02:42:37;;;;;;;17.52;8.98;;;-2.10;99.90;;;;;;4142811;28;20049;-64
2022/12/18 02:44:46;;;;;;;19.95;9.65;;;-2.10;99.90;;;;;;4143049;28;20034;-64
2022/12/18 02:46:51;;;;;;;18.25;8.77;;;-2.10;99.90;;;;;;4140088;28;20049;-64
2022/12/18 02:49:17;;;;;;;18.33;9.27;;;-2.10;99.90;;;;;;4141847;28;20069;-64
2022/12/18 02:51:37;;;;;;;17.13;8.73;;;-2.10;99.90;;;;;;4125797;28;20031;-64
2022/12/18 02:53:49;;;;;;;18.33;8.90;;;-2.10;99.90;;;;;;4141944;28;20113;-64
2022/12/18 02:56:28;;;;;;;17.33;9.00;;;-2.10;99.90;;;;;;4132920;28;20042;-64
2022/12/18 02:58:53;;;;;;;20.55;9.13;;;-2.10;99.90;;;;;;4137245;28;20038;-64
2022/12/18 03:01:01;;;;;;;19.52;8.82;;;-2.10;99.90;;;;;;4144253;28;20425;-64
2022/12/18 03:03:32;;;;;;;19.77;9.63;;;-2.00;99.90;;;;;;4140983;28;20030;-64
2022/12/18 03:06:12;;;;;;;15.68;8.00;;;-2.10;99.90;;;;;;4144240;28;20048;-64
2022/12/18 03:08:20;;;;;;;18.90;9.55;;;-2.10;99.90;;;;;;4143836;28;20037;-64
2022/12/18 03:10:27;;;;;;;17.67;8.85;;;-2.00;99.90;;;;;;4146745;28;20080;-64
2022/12/18 03:12:32;;;;;;;20.25;8.60;;;-2.00;99.90;;;;;;4145721;28;20046;-64
2022/12/18 03:14:37;;;;;;;15.57;8.57;;;-2.10;99.90;;;;;;4147714;28;20064;-63
2022/12/18 03:16:40;;;;;;;18.13;9.00;;;-2.10;99.90;;;;;;4145881;28;20373;-64
2022/12/18 03:18:49;;;;;;;19.27;9.20;;;-2.10;99.90;;;;;;4146949;28;20029;-65
2022/12/18 03:20:53;;;;;;;19.30;8.65;;;-2.10;99.90;;;;;;4146227;28;20026;-64
2022/12/18 03:23:02;;;;;;;20.55;8.95;;;-2.10;99.90;;;;;;4148198;28;20042;-64
2022/12/18 03:25:07;;;;;;;18.00;9.05;;;-2.00;99.90;;;;;;4145002;28;20042;-64
2022/12/18 03:27:14;;;;;;;15.23;7.63;;;-2.00;99.90;;;;;;4145482;28;20030;-64
2022/12/18 03:29:39;;;;;;;21.70;9.57;;;-2.10;99.90;;;;;;4146741;28;20496;-64
2022/12/18 03:31:42;;;;;;;17.77;8.55;;;-2.10;99.90;;;;;;4142706;28;20121;-64
2022/12/18 03:33:54;;;;;;;16.95;8.50;;;-2.10;99.90;;;;;;4146668;28;20588;-64
2022/12/18 03:35:55;;;;;;;20.20;8.70;;;-2.00;99.90;;;;;;4146157;28;20049;-64
2022/12/18 03:37:56;;;;;;;18.92;9.07;;;-2.00;99.90;;;;;;4146122;28;20052;-64
2022/12/18 03:39:56;;;;;;;16.85;8.73;;;-2.10;99.90;;;;;;4146763;28;20042;-64
2022/12/18 03:42:28;;;;;;;16.63;8.70;;;-2.00;99.90;;;;;;4145450;28;20042;-64
2022/12/18 03:44:39;;;;;;;21.08;9.32;;;-2.10;99.90;;;;;;4145595;28;20045;-63
2022/12/18 03:47:04;;;;;;;21.65;8.98;;;-2.10;99.90;;;;;;4157545;28;20495;-64
2022/12/18 03:49:12;;;;;;;18.65;7.78;;;-2.10;99.90;;;;;;4146806;28;20030;-64
2022/12/18 03:52:03;;;;;;;17.73;8.93;;;-2.10;99.90;;;;;;4144920;28;20041;-64
2022/12/18 03:54:06;;;;;;;16.77;7.53;;;-2.00;99.90;;;;;;4142409;28;20054;-64
2022/12/18 03:56:08;;;;;;;16.20;8.38;;;-2.10;99.90;;;;;;4143159;28;20512;-63
2022/12/18 03:58:13;;;;;;;18.40;9.05;;;-2.00;99.90;;;;;;4142216;28;20069;-64
2022/12/18 04:00:33;;;;;;;20.33;9.15;;;-2.00;99.90;;;;;;4145505;28;20026;-64
2022/12/18 04:02:36;;;;;;;20.95;9.07;;;-2.00;99.90;;;;;;4141311;28;20042;-63
2022/12/18 04:04:38;;;;;;;;;;;-2.00;99.90;;;;;;4141638;28;20038;-64
2022/12/18 04:06:39;;;;;;;17.23;8.53;;;-2.00;99.90;;;;;;4138951;28;20356;-63
2022/12/18 04:08:41;;;;;;;18.15;8.25;;;-2.00;99.90;;;;;;4148704;28;20264;-64
2022/12/18 04:10:41;;;;;;;18.55;9.75;;;-2.00;99.90;;;;;;4161269;28;20431;-64
2022/12/18 04:12:42;;;;;;;17.75;8.63;;;-2.00;99.90;;;;;;4157357;28;20054;-64
2022/12/18 04:14:43;;;;;;;17.70;9.07;;;-2.00;99.90;;;;;;4146909;28;20084;-64
2022/12/18 04:16:44;;;;;;;15.10;8.43;;;-2.00;99.90;;;;;;4140022;28;20050;-65
2022/12/18 04:18:44;;;;;;;20.38;9.20;;;-2.00;99.90;;;;;;4147835;28;20123;-64
2022/12/18 04:20:45;;;;;;;18.92;8.60;;;-2.00;99.90;;;;;;4159360;28;20508;-64
2022/12/18 04:22:47;;;;;;;17.58;8.68;;;-2.00;99.90;;;;;;4158344;28;20476;-64
2022/12/18 04:24:47;;;;;;;17.27;8.23;;;-2.00;99.90;;;;;;4147124;28;20069;-64
2022/12/18 04:26:48;;;;;;;17.67;8.80;;;-2.00;99.90;;;;;;4144465;28;20520;-64
2022/12/18 04:28:48;;;;;;;19.70;8.13;;;-2.00;99.90;;;;;;4140201;28;20469;-64
2022/12/18 04:30:49;;;;;;;16.92;7.45;;;-2.00;99.90;;;;;;4130068;28;20409;-64
2022/12/18 04:32:50;;;;;;;13.40;7.55;;;-2.00;99.90;;;;;;4134071;28;20029;-64
2022/12/18 04:34:50;;;;;;;14.52;7.95;;;-2.00;99.90;;;;;;4140142;28;20046;-64
2022/12/18 04:36:51;;;;;;;17.83;8.38;;;-1.90;99.90;;;;;;4140611;28;20049;-64
2022/12/18 04:38:51;;;;;;;15.48;7.88;;;-1.90;99.90;;;;;;4147160;28;20030;-64
2022/12/18 04:40:52;;;;;;;13.13;7.30;;;-1.90;99.90;;;;;;4159664;28;20381;-64
2022/12/18 04:42:53;;;;;;;17.35;8.48;;;-2.00;99.90;;;;;;4161248;28;20540;-64
2022/12/18 04:44:53;;;;;;;16.67;8.63;;;-2.00;99.90;;;;;;4146830;28;20451;-64
2022/12/18 04:46:54;;;;;;;18.30;8.18;;;-1.90;99.90;;;;;;4142984;28;20038;-64
2022/12/18 04:48:54;;;;;;;15.57;7.47;;;-1.90;99.90;;;;;;4146056;28;20041;-64
2022/12/18 04:50:55;;;;;;;15.65;8.30;;;-1.90;99.90;;;;;;4145730;28;20045;-63
2022/12/18 04:52:55;;;;;;;18.48;8.68;;;-1.90;99.90;;;;;;4160954;28;20038;-64
2022/12/18 04:54:56;;;;;;;16.25;7.60;;;-1.90;99.90;;;;;;4146691;28;20080;-64
2022/12/18 04:56:56;;;;;;;15.35;7.70;;;-2.00;99.90;;;;;;4141138;28;20034;-63
2022/12/18 04:58:57;;;;;;;14.50;7.75;;;-1.90;99.90;;;;;;4146069;28;20042;-64
2022/12/18 05:00:58;;;;;;;15.98;7.53;;;-1.90;99.90;;;;;;4145117;28;20045;-64
2022/12/18 05:03:01;;;;;;;16.02;7.75;;;-1.90;99.90;;;;;;4149296;28;20037;-64
2022/12/18 05:05:02;;;;;;;15.65;7.95;;;-1.90;99.90;;;;;;4153122;28;20079;-64
2022/12/18 05:07:03;;;;;;;13.05;7.18;;;-1.90;99.90;;;;;;4144985;28;20544;-64
2022/12/18 05:09:03;;;;;;;13.95;7.05;;;-1.90;99.90;;;;;;4146637;28;20042;-64
2022/12/18 05:11:10;;;;;;;16.60;8.18;;;-1.90;99.90;;;;;;4145534;28;20096;-64
2022/12/18 05:13:10;;;;;;;15.23;7.10;;;-1.90;99.90;;;;;;4142099;28;20121;-64
2022/12/18 05:15:11;;;;;;;13.15;6.55;;;-1.80;99.90;;;;;;4147152;28;20045;-64
2022/12/18 05:17:12;;;;;;;14.20;7.53;;;-1.80;99.90;;;;;;4131228;28;20140;-64
2022/12/18 05:19:12;;;;;;;15.55;7.65;;;-1.80;99.90;;;;;;4151671;28;20042;-64
2022/12/18 05:21:13;;;;;;;17.83;7.25;;;-1.80;99.90;;;;;;4158080;28;20034;-63
2022/12/18 05:23:13;;;;;;;13.20;7.03;;;-1.80;99.90;;;;;;4160606;28;20038;-64
2022/12/18 05:25:14;;;;;;;15.80;7.57;;;-1.80;99.90;;;;;;4146034;28;20116;-64
2022/12/18 05:27:15;;;;;;;13.82;6.85;;;-1.90;99.90;;;;;;4132118;28;20061;-65
2022/12/18 05:29:16;;;;;;;14.93;7.18;;;-1.80;99.90;;;;;;4145980;28;20080;-64
2022/12/18 05:31:16;;;;;;;12.93;6.93;;;-1.80;99.90;;;;;;4145481;28;20030;-64
2022/12/18 05:33:18;;;;;;;14.70;7.07;;;-1.80;99.90;;;;;;4159426;28;20385;-64
2022/12/18 05:35:19;;;;;;;12.60;6.27;;;-1.80;99.90;;;;;;4148299;28;20504;-64
2022/12/18 05:37:20;;;;;;;12.73;6.70;;;-1.80;99.90;;;;;;4135775;28;20261;-64
2022/12/18 05:39:21;;;;;;;13.40;6.70;;;-1.80;99.90;;;;;;4145941;28;20041;-64
2022/12/18 05:41:22;;;;;;;12.32;6.13;;;-1.70;99.90;;;;;;4150754;28;20055;-64
2022/12/18 05:43:25;;;;;;;14.80;6.65;;;-1.80;99.90;;;;;;4161348;28;20030;-64
2022/12/18 05:45:26;;;;;;;14.70;7.18;;;-1.80;99.90;;;;;;4149327;28;20408;-64
2022/12/18 05:47:28;;;;;;;12.63;6.78;;;-1.70;99.90;;;;;;4151756;28;20026;-64
2022/12/18 05:49:29;;;;;;;15.05;7.72;;;-1.70;99.90;;;;;;4145545;28;20038;-63
2022/12/18 05:51:29;;;;;;;16.52;7.78;;;-1.70;99.90;;;;;;4141762;28;20054;-64
2022/12/18 05:53:30;;;;;;;12.90;6.63;;;-1.70;99.90;;;;;;4148715;28;20109;-64
2022/12/18 05:55:35;;;;;;;12.63;6.65;;;-1.70;99.90;;;;;;4151139;28;20045;-64
2022/12/18 05:57:35;;;;;;;13.57;7.22;;;-1.70;99.90;;;;;;4144977;28;20069;-64
2022/12/18 05:59:36;;;;;;;15.13;7.47;;;-1.70;99.90;;;;;;4145569;28;20026;-64
2022/12/18 06:01:36;;;;;;;14.00;6.85;;;-1.70;99.90;;;;;;4152271;28;20053;-64
2022/12/18 06:03:37;;;;;;;13.23;6.95;;;-1.70;99.90;;;;;;4144691;28;20034;-64
2022/12/18 06:05:40;;;;;;;13.90;7.00;;;-1.70;99.90;;;;;;4151857;28;20117;-64
2022/12/18 06:07:41;;;;;;;14.10;6.50;;;-1.70;99.90;;;;;;4144545;28;20038;-64
2022/12/18 06:09:41;;;;;;;14.07;6.43;;;-1.70;99.90;;;;;;4144926;28;20108;-64
2022/12/18 06:11:42;;;;;;;13.32;7.03;;;-1.60;99.90;;;;;;4144726;28;20050;-63
2022/12/18 06:13:42;;;;;;;12.65;6.55;;;-1.60;99.90;;;;;;4153070;28;20112;-62
2022/12/18 06:15:43;;;;;;;13.15;6.97;;;-1.70;99.90;;;;;;4145102;28;20080;-63
2022/12/18 06:17:43;;;;;;;13.30;7.00;;;-1.70;99.90;;;;;;4144269;28;20030;-63
2022/12/18 06:19:44;;;;;;;10.63;5.80;;;-1.60;99.90;;;;;;4144512;28;20034;-62
2022/12/18 06:21:44;;;;;;;13.15;6.63;;;-1.60;99.90;;;;;;4144342;28;20057;-62
2022/12/18 06:23:45;;;;;;;15.73;6.55;;;-1.60;99.90;;;;;;4143642;28;20465;-63
2022/12/18 06:25:45;;;;;;;12.40;6.85;;;-1.60;99.90;;;;;;4147101;28;20389;-63
2022/12/18 06:27:47;;;;;;;13.55;6.55;;;-1.60;99.90;;;;;;4146624;28;20369;-63
2022/12/18 06:29:48;;;;;;;12.80;6.95;;;-1.60;99.90;;;;;;4139635;28;20393;-62
2022/12/18 06:31:49;;;;;;;12.48;6.75;;;-1.70;99.90;;;;;;4142915;28;20026;-62
2022/12/18 06:33:49;;;;;;;13.23;7.22;;;-1.70;99.90;;;;;;4152260;28;20091;-62
2022/12/18 06:35:50;;;;;;;14.32;7.47;;;-1.70;99.90;;;;;;4150937;28;20042;-62
2022/12/18 06:37:50;;;;;;;17.05;8.02;;;-1.70;99.90;;;;;;4144316;28;20109;-62
2022/12/18 06:39:52;;;;;;;14.52;7.60;;;-1.70;99.90;;;;;;4144903;28;20069;-63
2022/12/18 06:41:52;;;;;;;14.70;6.95;;;-1.90;99.90;;;;;;4144248;28;20084;-62
2022/12/18 06:43:53;;;;;;;16.52;7.78;;;-1.80;99.90;;;;;;4151802;28;20045;-62
2022/12/18 06:46:00;;;;;;;13.70;7.07;;;-1.90;99.90;;;;;;4151980;28;20126;-62
2022/12/18 06:48:01;;;;;;;14.27;7.65;;;-1.90;99.90;;;;;;4144026;28;20520;-62
2022/12/18 06:50:02;;;;;;;13.75;7.35;;;-1.90;99.90;;;;;;4142808;28;20046;-62
2022/12/18 06:52:03;;;;;;;15.73;7.43;;;-1.90;99.90;;;;;;4145339;28;20042;-63
2022/12/18 06:54:03;;;;;;;14.13;6.82;;;-2.00;99.90;;;;;;4146070;28;20115;-62
2022/12/18 06:56:06;;;;;;;15.30;7.78;;;-2.00;99.90;;;;;;4143916;28;20091;-64
2022/12/18 06:58:07;;;;;;;13.80;7.90;;;-2.00;99.90;;;;;;4152679;28;20033;-62
2022/12/18 07:00:08;;;;;;;14.55;7.28;;;-2.00;99.90;;;;;;4154083;28;20061;-62
2022/12/18 07:02:12;;;;;;;13.68;7.43;;;-2.00;99.90;;;;;;4139383;28;20041;-62
2022/12/18 07:04:13;;;;;;;14.23;7.75;;;-2.00;99.90;;;;;;4145074;28;20033;-62
2022/12/18 07:06:19;;;;;;;13.70;7.13;;;-1.90;99.90;;;;;;4143642;28;20037;-62
2022/12/18 07:08:20;;;;;;;13.45;7.30;;;-1.90;99.90;;;;;;4142585;28;20084;-62
2022/12/18 07:10:20;;;;;;;14.77;6.95;;;-2.00;99.90;;;;;;4144331;28;20042;-62
2022/12/18 07:12:21;;;;;;;17.77;8.18;;;-2.00;99.90;;;;;;4148272;28;20053;-63
2022/12/18 07:14:21;;;;;;;12.23;6.10;;;-1.90;99.90;;;;;;4155173;28;20034;-62
2022/12/18 07:16:22;;;;;;;13.70;6.97;;;-1.90;99.90;;;;;;4142981;28;20034;-62
2022/12/18 07:18:22;;;;;;;12.18;6.82;;;-1.90;99.90;;;;;;4144303;28;20038;-62
2022/12/18 07:20:23;;;;;;;11.70;6.55;;;-1.90;99.90;;;;;;4143558;28;20046;-62
2022/12/18 07:22:25;;;;;;;16.73;6.80;;;-1.90;99.90;;;;;;4144398;28;20113;-62
2022/12/18 07:24:26;;;;;;;12.75;6.53;;;-1.90;99.90;;;;;;4157347;28;20045;-62
2022/12/18 07:26:27;;;;;;;16.20;7.50;;;-1.90;99.90;;;;;;4151708;28;20460;-63
2022/12/18 07:28:27;;;;;;;18.40;7.97;;;-1.90;99.90;;;;;;4153451;28;20046;-63
2022/12/18 07:30:28;;;;;;;14.23;6.75;;;-1.90;99.90;;;;;;4151840;28;20500;-63
2022/12/18 07:32:30;;;;;;;14.70;6.95;;;-1.80;99.90;;;;;;4144550;28;20401;-63
2022/12/18 07:34:31;;;;;;;13.18;6.72;;;-1.80;99.90;;;;;;4144758;28;20042;-63
2022/12/18 07:36:31;;;;;;;14.05;6.45;;;-1.90;99.90;;;;;;4137300;28;20117;-63
2022/12/18 07:38:33;;;;;;;16.15;7.82;;;-1.80;99.90;;;;;;4144291;28;20425;-63
2022/12/18 07:40:34;;;;;;;16.77;8.57;;;-1.80;99.90;;;;;;4145292;28;20033;-63
2022/12/18 07:42:35;;;;;;;13.70;6.75;;;-1.80;99.90;;;;;;4158621;28;20033;-63
2022/12/18 07:44:37;;;;;;;14.82;7.22;;;-1.80;99.90;;;;;;4153380;28;20045;-65
2022/12/18 07:46:37;;;;;;;12.85;7.07;;;-1.80;99.90;;;;;;4144914;28;20057;-63
2022/12/18 07:48:38;;;;;;;14.63;7.60;;;-1.80;99.90;;;;;;4146888;28;20477;-63
2022/12/18 07:50:39;;;;;;;15.48;7.50;;;-1.80;99.90;;;;;;4146065;28;20046;-63
2022/12/18 07:52:40;;;;;;;14.68;7.38;;;-1.80;99.90;;;;;;4146736;28;20432;-63
2022/12/18 07:54:41;;;;;;;19.77;8.73;;;-1.80;99.90;;;;;;4156558;28;20175;-63
2022/12/18 07:56:41;;;;;;;14.68;7.63;;;-1.90;99.90;;;;;;4145130;28;20059;-63
2022/12/18 07:58:44;;;;;;;17.17;7.30;;;-1.90;99.90;;;;;;4150647;28;20113;-63
2022/12/18 08:00:44;;;;;;;;;;;-1.90;99.90;;;;;;4146689;28;20046;-63
2022/12/18 08:02:45;;;;;;;17.02;7.53;;;-1.80;99.90;;;;;;4148084;28;19910;-63
2022/12/18 08:04:45;;;;;;;16.65;7.10;;;-1.80;99.90;;;;;;4143965;28;20045;-63
2022/12/18 08:06:46;;;;;;;17.95;8.00;;;-1.80;99.90;;;;;;4142316;28;20038;-63
2022/12/18 08:08:46;;;;;;;21.08;7.53;;;-1.80;99.90;;;;;;4144946;28;20469;-63
2022/12/18 08:10:47;;;;;;;14.75;7.95;;;-1.80;99.90;;;;;;4148675;28;20069;-63
2022/12/18 08:12:51;;;;;;;18.35;7.47;;;-1.80;99.90;;;;;;4159716;28;20444;-63
2022/12/18 08:14:51;;;;;;;19.02;9.15;;;-1.80;99.90;;;;;;4159250;28;20099;-64
2022/12/18 08:16:52;;;;;;;17.35;8.68;;;-1.70;99.90;;;;;;4147433;28;20113;-63
2022/12/18 08:18:53;;;;;;;17.20;7.43;;;-1.60;99.90;;;;;;4158723;28;20040;-63
2022/12/18 08:20:54;;;;;;;17.60;7.40;;;-1.60;99.90;;;;;;4148138;28;20050;-63
2022/12/18 08:22:55;;;;;;;15.57;7.82;;;-1.60;99.90;;;;;;4147097;28;20453;-63
2022/12/18 08:24:55;;;;;;;15.73;8.43;;;-1.50;99.90;;;;;;4137860;28;20073;-63
2022/12/18 08:26:57;;;;;;;14.57;7.50;;;-1.50;99.90;;;;;;4142463;28;20082;-63
2022/12/18 08:28:59;;;;;;;14.57;7.40;;;-1.40;99.90;;;;;;4142837;28;20052;-63
2022/12/18 08:31:00;;;;;;;15.25;7.82;;;-1.40;99.90;;;;;;4143320;28;20037;-63
2022/12/18 08:33:00;;;;;;;15.55;7.95;;;-1.40;99.90;;;;;;4140400;28;20038;-63
2022/12/18 08:35:01;;;;;;;18.55;8.85;;;-1.30;99.90;;;;;;4142215;28;20050;-63
2022/12/18 08:37:01;;;;;;;17.73;8.45;;;-1.30;99.90;;;;;;4137196;28;20129;-63
2022/12/18 08:39:02;;;;;;;17.90;7.78;;;-1.20;99.90;;;;;;4127940;28;20478;-63
2022/12/18 08:41:05;;;;;;;13.75;7.20;;;-1.20;99.90;;;;;;4126778;28;20405;-63
2022/12/18 08:45:29;;;;;;;14.90;7.80;;;-1.10;99.90;;;;;;4134929;28;20050;-63
2022/12/18 08:47:29;;;;;;;17.00;8.10;;;-1.10;99.90;;;;;;4131441;28;20165;-63
2022/12/18 08:49:30;;;;;;;19.13;8.50;;;-1.00;99.90;;;;;;4139586;28;20045;-63
2022/12/18 08:51:30;;;;;;;18.27;8.93;;;-1.00;99.90;;;;;;4137741;28;20050;-63
2022/12/18 08:53:31;;;;;;;19.02;9.00;;;-1.00;99.90;;;;;;4136714;28;20168;-63
2022/12/18 08:55:32;;;;;;;18.67;8.05;;;-0.90;99.90;;;;;;4141965;28;20353;-63
2022/12/18 08:57:32;;;;;;;19.00;8.18;;;-0.90;99.90;;;;;;4143096;28;20061;-63
2022/12/18 08:59:33;;;;;;;15.65;8.07;;;-0.90;99.90;;;;;;4143786;28;20044;-63
2022/12/18 09:01:33;;;;;;;17.65;8.15;;;-0.80;99.90;;;;;;4141573;28;20033;-63
2022/12/18 09:03:34;;;;;;;17.27;8.35;;;-0.80;99.90;;;;;;4143515;28;20038;-63
2022/12/18 09:05:35;;;;;;;16.10;7.35;;;-0.80;99.90;;;;;;4142214;28;20088;-63
2022/12/18 09:07:35;;;;;;;16.80;8.02;;;-0.80;99.90;;;;;;4140899;28;20488;-63
2022/12/18 09:09:36;;;;;;;15.43;7.68;;;-0.70;99.90;;;;;;4142376;28;20133;-63
2022/12/18 09:11:37;;;;;;;17.55;8.02;;;-0.70;99.90;;;;;;4140900;28;20085;-63
2022/12/18 09:13:37;;;;;;;14.75;7.68;;;-0.60;99.90;;;;;;4143277;28;20045;-63
2022/12/18 09:15:46;;;;;;;15.23;8.25;;;-0.60;99.90;;;;;;4135308;28;20084;-63
2022/12/18 09:17:47;;;;;;;15.68;7.55;;;-0.60;99.90;;;;;;4142003;28;20038;-63
2022/12/18 09:19:49;;;;;;;15.63;8.02;;;-0.50;99.90;;;;;;4142742;28;20472;-66
2022/12/18 09:21:49;;;;;;;19.50;8.68;;;-0.50;99.90;;;;;;4142205;28;20038;-66
2022/12/18 09:23:51;;;;;;;20.15;8.82;;;-0.50;99.90;;;;;;4140756;28;20533;-64
2022/12/18 09:25:51;;;;;;;15.50;8.07;;;-0.50;99.90;;;;;;4141549;28;20049;-64
2022/12/18 09:27:52;;;;;;;16.98;9.15;;;-0.40;99.90;;;;;;4140694;28;20077;-65
2022/12/18 09:29:52;;;;;;;17.08;8.35;;;-0.40;99.90;;;;;;4140857;28;20374;-64
2022/12/18 09:31:53;;;;;;;16.48;8.50;;;-0.30;99.90;;;;;;4141621;28;20544;-65
2022/12/18 09:33:55;;;;;;;16.05;8.43;;;-0.30;99.90;;;;;;4142482;28;20113;-64
2022/12/18 09:35:56;;;;;;;16.15;8.82;;;-0.20;99.90;;;;;;4140589;28;20057;-65
2022/12/18 09:37:56;;;;;;;17.00;8.32;;;-0.30;99.90;;;;;;4141880;28;20057;-64
2022/12/18 09:39:57;;;;;;;17.98;9.15;;;-0.20;99.90;;;;;;4141400;28;20042;-64
2022/12/18 09:41:58;;;;;;;20.92;8.20;;;-0.20;99.90;;;;;;4141402;28;20038;-64
2022/12/18 09:44:15;;;;;;;21.33;8.60;;;-0.20;99.90;;;;;;4133787;28;20050;-64
2022/12/18 09:46:25;;;;;;;20.67;9.10;;;-0.10;99.90;;;;;;4141368;28;20033;-64
2022/12/18 09:48:32;;;;;;;16.75;8.70;;;-0.10;99.90;;;;;;4140517;28;20044;-64
2022/12/18 09:50:39;;;;;;;16.73;8.48;;;0.00;99.90;;;;;;4142096;28;20705;-64
2022/12/18 09:52:44;;;;;;;15.18;8.25;;;0.00;99.90;;;;;;4131115;28;20045;-64
2022/12/18 09:54:54;;;;;;;17.73;8.93;;;0.00;99.90;;;;;;4134460;28;20053;-64
2022/12/18 09:56:55;;;;;;;18.23;8.55;;;0.00;99.90;;;;;;4138820;28;20084;-65
2022/12/18 09:58:59;;;;;;;20.50;8.98;;;0.00;99.90;;;;;;4116683;28;20050;-65
2022/12/18 10:00:59;;;;;;;18.42;8.75;;;0.00;99.90;;;;;;4134612;28;20490;-65
2022/12/18 10:03:09;;;;;;;17.15;8.40;;;0.10;99.90;;;;;;4137991;28;20139;-64
2022/12/18 10:05:16;;;;;;;18.88;8.98;;;0.10;99.90;;;;;;4126666;28;20507;-67
2022/12/18 10:07:30;;;;;;;16.80;8.45;;;0.10;99.90;;;;;;4136027;28;20038;-64
2022/12/18 10:09:39;;;;;;;17.85;8.35;;;0.10;99.90;;;;;;4139021;28;20061;-65
2022/12/18 10:12:06;;;;;;;16.63;8.50;;;0.20;99.90;;;;;;4141418;28;20519;-64
2022/12/18 10:14:27;;;;;;;18.38;8.32;;;0.20;99.90;;;;;;4138990;28;20393;-64
2022/12/18 10:16:51;;;;;;;16.38;8.15;;;0.20;99.90;;;;;;4141046;28;20092;-65
2022/12/18 10:19:09;;;;;;;15.35;7.85;;;0.20;99.90;;;;;;4141592;28;20038;-64
2022/12/18 10:21:42;;;;;;;17.60;8.25;;;0.30;99.90;;;;;;4112397;28;20096;-65
2022/12/18 10:23:54;;;;;;;16.90;7.95;;;0.30;99.90;;;;;;4128630;28;20097;-65
2022/12/18 10:26:07;;;;;;;16.83;8.40;;;0.30;99.90;;;;;;4139636;28;20053;-66
2022/12/18 10:28:13;;;;;;;17.77;9.63;;;0.40;99.90;;;;;;4115799;28;20242;-64
2022/12/18 10:30:16;;;;;;;18.88;9.20;;;0.40;99.90;;;;;;4138540;28;20038;-69
2022/12/18 10:32:25;;;;;;;18.60;9.10;;;0.40;99.90;;;;;;4078501;28;20040;-64
2022/12/18 10:34:25;;;;;;;19.35;9.52;;;0.50;99.90;;;;;;4139254;28;20524;-66
2022/12/18 10:36:26;;;;;;;17.70;8.65;;;0.50;99.90;;;;;;4136120;28;20038;-65
2022/12/18 10:38:28;;;;;;;17.60;9.30;;;0.50;99.90;;;;;;4132440;28;20035;-65
2022/12/18 10:40:29;;;;;;;23.38;11.43;;;0.50;99.90;;;;;;4136228;28;20125;-65
2022/12/18 10:42:30;;;;;;;28.30;11.35;;;0.60;99.90;;;;;;4128853;28;20481;-65
2022/12/18 10:44:30;;;;;;;23.23;11.40;;;0.60;99.90;;;;;;4135765;28;20766;-65